sensor_id;sensor_type;location;lat;lon;timestamp;P1;durP1;ratioP1;P2;durP2;ratioP2
46110;SDS011;31849;55.992;37.252;2023-06-22T00:03:41;11.77;;;5.32;;
46110;SDS011;31849;55.992;37.252;2023-06-22T00:08:45;17.73;;;5.75;;
46110;SDS011;31849;55.992;37.252;2023-06-22T00:13:50;17.95;;;6.05;;
46110;SDS011;31849;55.992;37.252;2023-06-22T00:18:54;10.65;;;5.20;;
46110;SDS011;31849;55.992;37.252;2023-06-22T00:23:57;12.35;;;5.70;;
46110;SDS011;31849;55.992;37.252;2023-06-22T00:29:02;9.15;;;4.95;;
46110;SDS011;31849;55.992;37.252;2023-06-22T00:34:05;9.38;;;5.78;;
46110;SDS011;31849;55.992;37.252;2023-06-22T00:39:10;8.73;;;4.75;;
46110;SDS011;31849;55.992;37.252;2023-06-22T00:44:15;9.10;;;4.90;;
46110;SDS011;31849;55.992;37.252;2023-06-22T00:49:19;9.30;;;5.25;;
46110;SDS011;31849;55.992;37.252;2023-06-22T00:54:23;11.10;;;5.72;;
46110;SDS011;31849;55.992;37.252;2023-06-22T00:59:29;9.35;;;5.70;;
46110;SDS011;31849;55.992;37.252;2023-06-22T01:04:35;9.63;;;5.38;;
46110;SDS011;31849;55.992;37.252;2023-06-22T01:09:41;12.55;;;5.40;;
46110;SDS011;31849;55.992;37.252;2023-06-22T01:14:58;9.45;;;5.15;;
46110;SDS011;31849;55.992;37.252;2023-06-22T01:20:08;12.23;;;5.75;;
46110;SDS011;31849;55.992;37.252;2023-06-22T01:25:16;10.50;;;5.72;;
46110;SDS011;31849;55.992;37.252;2023-06-22T01:30:24;7.85;;;5.20;;
46110;SDS011;31849;55.992;37.252;2023-06-22T01:35:29;8.48;;;5.53;;
46110;SDS011;31849;55.992;37.252;2023-06-22T01:40:33;8.87;;;5.17;;
46110;SDS011;31849;55.992;37.252;2023-06-22T01:45:39;10.73;;;5.70;;
46110;SDS011;31849;55.992;37.252;2023-06-22T01:50:42;10.43;;;5.57;;
46110;SDS011;31849;55.992;37.252;2023-06-22T01:55:46;8.93;;;4.80;;
46110;SDS011;31849;55.992;37.252;2023-06-22T02:00:53;7.07;;;4.35;;
46110;SDS011;31849;55.992;37.252;2023-06-22T02:06:02;14.93;;;5.72;;
46110;SDS011;31849;55.992;37.252;2023-06-22T02:11:09;10.45;;;6.18;;
46110;SDS011;31849;55.992;37.252;2023-06-22T02:16:16;18.70;;;6.00;;
46110;SDS011;31849;55.992;37.252;2023-06-22T02:21:21;11.43;;;5.35;;
46110;SDS011;31849;55.992;37.252;2023-06-22T02:26:25;10.57;;;5.40;;
46110;SDS011;31849;55.992;37.252;2023-06-22T02:31:30;10.15;;;5.45;;
46110;SDS011;31849;55.992;37.252;2023-06-22T02:36:34;10.07;;;5.68;;
46110;SDS011;31849;55.992;37.252;2023-06-22T02:41:38;11.30;;;6.10;;
46110;SDS011;31849;55.992;37.252;2023-06-22T02:46:43;9.48;;;5.78;;
46110;SDS011;31849;55.992;37.252;2023-06-22T02:51:47;13.23;;;6.07;;
46110;SDS011;31849;55.992;37.252;2023-06-22T02:56:51;14.30;;;8.00;;
46110;SDS011;31849;55.992;37.252;2023-06-22T03:01:56;21.80;;;8.65;;
46110;SDS011;31849;55.992;37.252;2023-06-22T03:07:00;17.27;;;7.82;;
46110;SDS011;31849;55.992;37.252;2023-06-22T03:12:04;19.73;;;9.13;;
46110;SDS011;31849;55.992;37.252;2023-06-22T03:17:10;21.17;;;9.30;;
46110;SDS011;31849;55.992;37.252;2023-06-22T03:22:13;16.95;;;8.82;;
46110;SDS011;31849;55.992;37.252;2023-06-22T03:27:17;19.93;;;8.37;;
46110;SDS011;31849;55.992;37.252;2023-06-22T03:32:22;17.37;;;8.60;;
46110;SDS011;31849;55.992;37.252;2023-06-22T03:37:26;18.02;;;7.78;;
46110;SDS011;31849;55.992;37.252;2023-06-22T03:42:30;11.52;;;7.13;;
46110;SDS011;31849;55.992;37.252;2023-06-22T03:47:35;14.00;;;6.90;;
46110;SDS011;31849;55.992;37.252;2023-06-22T03:52:38;11.02;;;6.45;;
46110;SDS011;31849;55.992;37.252;2023-06-22T03:57:43;12.23;;;6.63;;
46110;SDS011;31849;55.992;37.252;2023-06-22T04:02:48;8.33;;;6.03;;
46110;SDS011;31849;55.992;37.252;2023-06-22T04:07:52;9.55;;;6.45;;
46110;SDS011;31849;55.992;37.252;2023-06-22T04:12:55;10.07;;;6.23;;
46110;SDS011;31849;55.992;37.252;2023-06-22T04:18:00;10.00;;;6.07;;
46110;SDS011;31849;55.992;37.252;2023-06-22T04:23:05;8.82;;;6.15;;
46110;SDS011;31849;55.992;37.252;2023-06-22T04:28:08;11.98;;;5.95;;
46110;SDS011;31849;55.992;37.252;2023-06-22T04:33:16;15.80;;;6.03;;
46110;SDS011;31849;55.992;37.252;2023-06-22T04:38:20;10.88;;;5.80;;
46110;SDS011;31849;55.992;37.252;2023-06-22T04:43:24;8.50;;;5.00;;
46110;SDS011;31849;55.992;37.252;2023-06-22T04:48:34;7.25;;;5.13;;
46110;SDS011;31849;55.992;37.252;2023-06-22T04:53:38;7.88;;;4.85;;
46110;SDS011;31849;55.992;37.252;2023-06-22T04:58:42;6.72;;;4.90;;
46110;SDS011;31849;55.992;37.252;2023-06-22T05:08:51;7.82;;;4.78;;
46110;SDS011;31849;55.992;37.252;2023-06-22T05:13:59;6.53;;;4.65;;
46110;SDS011;31849;55.992;37.252;2023-06-22T05:19:04;8.82;;;5.03;;
46110;SDS011;31849;55.992;37.252;2023-06-22T05:24:08;6.80;;;4.60;;
46110;SDS011;31849;55.992;37.252;2023-06-22T05:29:11;7.40;;;4.78;;
46110;SDS011;31849;55.992;37.252;2023-06-22T05:34:16;6.40;;;4.90;;
46110;SDS011;31849;55.992;37.252;2023-06-22T05:39:20;6.50;;;4.90;;
46110;SDS011;31849;55.992;37.252;2023-06-22T05:44:24;6.13;;;4.35;;
46110;SDS011;31849;55.992;37.252;2023-06-22T05:49:29;7.10;;;5.30;;
46110;SDS011;31849;55.992;37.252;2023-06-22T05:54:34;5.53;;;4.22;;
46110;SDS011;31849;55.992;37.252;2023-06-22T05:59:40;5.85;;;4.25;;
46110;SDS011;31849;55.992;37.252;2023-06-22T06:04:45;8.55;;;4.65;;
46110;SDS011;31849;55.992;37.252;2023-06-22T06:09:48;6.63;;;4.28;;
46110;SDS011;31849;55.992;37.252;2023-06-22T06:14:52;6.18;;;4.32;;
46110;SDS011;31849;55.992;37.252;2023-06-22T06:19:58;7.80;;;4.50;;
46110;SDS011;31849;55.992;37.252;2023-06-22T06:25:05;4.40;;;4.00;;
46110;SDS011;31849;55.992;37.252;2023-06-22T06:30:09;4.95;;;4.22;;
46110;SDS011;31849;55.992;37.252;2023-06-22T06:35:15;6.93;;;3.70;;
46110;SDS011;31849;55.992;37.252;2023-06-22T06:40:19;6.28;;;4.32;;
46110;SDS011;31849;55.992;37.252;2023-06-22T06:45:23;5.35;;;4.15;;
46110;SDS011;31849;55.992;37.252;2023-06-22T06:50:33;5.43;;;4.00;;
46110;SDS011;31849;55.992;37.252;2023-06-22T06:55:37;4.45;;;4.00;;
46110;SDS011;31849;55.992;37.252;2023-06-22T07:00:40;5.93;;;4.03;;
46110;SDS011;31849;55.992;37.252;2023-06-22T07:05:46;9.15;;;4.30;;
46110;SDS011;31849;55.992;37.252;2023-06-22T07:10:51;5.05;;;3.75;;
46110;SDS011;31849;55.992;37.252;2023-06-22T07:15:55;5.88;;;3.63;;
46110;SDS011;31849;55.992;37.252;2023-06-22T07:21:00;5.40;;;3.75;;
46110;SDS011;31849;55.992;37.252;2023-06-22T07:26:05;5.43;;;3.72;;
46110;SDS011;31849;55.992;37.252;2023-06-22T07:31:10;6.32;;;4.40;;
46110;SDS011;31849;55.992;37.252;2023-06-22T07:36:16;5.07;;;3.88;;
46110;SDS011;31849;55.992;37.252;2023-06-22T07:41:19;6.88;;;4.03;;
46110;SDS011;31849;55.992;37.252;2023-06-22T07:46:23;5.90;;;4.50;;
46110;SDS011;31849;55.992;37.252;2023-06-22T07:51:28;5.82;;;3.88;;
46110;SDS011;31849;55.992;37.252;2023-06-22T07:56:31;6.28;;;3.97;;
46110;SDS011;31849;55.992;37.252;2023-06-22T08:01:35;6.55;;;4.68;;
46110;SDS011;31849;55.992;37.252;2023-06-22T08:06:40;8.52;;;4.20;;
46110;SDS011;31849;55.992;37.252;2023-06-22T08:11:45;6.15;;;4.25;;
46110;SDS011;31849;55.992;37.252;2023-06-22T08:16:49;4.78;;;4.00;;
46110;SDS011;31849;55.992;37.252;2023-06-22T08:21:54;8.25;;;4.25;;
46110;SDS011;31849;55.992;37.252;2023-06-22T08:26:58;7.95;;;4.28;;
46110;SDS011;31849;55.992;37.252;2023-06-22T08:32:02;7.00;;;4.60;;
46110;SDS011;31849;55.992;37.252;2023-06-22T08:37:08;8.57;;;4.80;;
46110;SDS011;31849;55.992;37.252;2023-06-22T08:42:12;6.47;;;3.90;;
46110;SDS011;31849;55.992;37.252;2023-06-22T08:47:15;5.70;;;3.97;;
46110;SDS011;31849;55.992;37.252;2023-06-22T08:52:20;6.45;;;4.13;;
46110;SDS011;31849;55.992;37.252;2023-06-22T08:57:25;7.68;;;4.78;;
46110;SDS011;31849;55.992;37.252;2023-06-22T09:02:29;7.95;;;4.57;;
46110;SDS011;31849;55.992;37.252;2023-06-22T09:07:35;6.45;;;4.40;;
46110;SDS011;31849;55.992;37.252;2023-06-22T09:12:39;6.55;;;4.68;;
46110;SDS011;31849;55.992;37.252;2023-06-22T09:17:43;7.32;;;4.60;;
46110;SDS011;31849;55.992;37.252;2023-06-22T09:22:50;6.15;;;4.40;;
46110;SDS011;31849;55.992;37.252;2023-06-22T09:27:53;7.47;;;4.22;;
46110;SDS011;31849;55.992;37.252;2023-06-22T09:32:57;4.85;;;4.00;;
46110;SDS011;31849;55.992;37.252;2023-06-22T09:38:03;5.88;;;4.13;;
46110;SDS011;31849;55.992;37.252;2023-06-22T09:43:06;6.95;;;4.88;;
46110;SDS011;31849;55.992;37.252;2023-06-22T09:48:10;8.23;;;4.72;;
46110;SDS011;31849;55.992;37.252;2023-06-22T09:53:15;9.63;;;4.50;;
46110;SDS011;31849;55.992;37.252;2023-06-22T09:58:19;5.68;;;4.30;;
46110;SDS011;31849;55.992;37.252;2023-06-22T10:03:22;8.05;;;4.60;;
46110;SDS011;31849;55.992;37.252;2023-06-22T10:08:28;7.53;;;4.15;;
46110;SDS011;31849;55.992;37.252;2023-06-22T10:13:31;6.47;;;4.30;;
46110;SDS011;31849;55.992;37.252;2023-06-22T10:18:35;7.80;;;4.20;;
46110;SDS011;31849;55.992;37.252;2023-06-22T10:23:40;6.15;;;4.35;;
46110;SDS011;31849;55.992;37.252;2023-06-22T10:28:43;6.20;;;4.18;;
46110;SDS011;31849;55.992;37.252;2023-06-22T10:33:47;6.68;;;4.43;;
46110;SDS011;31849;55.992;37.252;2023-06-22T10:38:53;7.50;;;4.35;;
46110;SDS011;31849;55.992;37.252;2023-06-22T10:43:57;5.97;;;4.25;;
46110;SDS011;31849;55.992;37.252;2023-06-22T10:49:01;4.78;;;4.28;;
46110;SDS011;31849;55.992;37.252;2023-06-22T10:54:07;7.05;;;4.55;;
46110;SDS011;31849;55.992;37.252;2023-06-22T10:59:10;6.38;;;4.10;;
46110;SDS011;31849;55.992;37.252;2023-06-22T11:04:14;7.30;;;4.47;;
46110;SDS011;31849;55.992;37.252;2023-06-22T11:09:20;8.40;;;4.72;;
46110;SDS011;31849;55.992;37.252;2023-06-22T11:14:29;6.82;;;4.55;;
46110;SDS011;31849;55.992;37.252;2023-06-22T11:19:32;6.40;;;5.00;;
46110;SDS011;31849;55.992;37.252;2023-06-22T11:24:37;6.10;;;4.60;;
46110;SDS011;31849;55.992;37.252;2023-06-22T11:29:41;6.75;;;4.45;;
46110;SDS011;31849;55.992;37.252;2023-06-22T11:34:45;5.95;;;5.05;;
46110;SDS011;31849;55.992;37.252;2023-06-22T11:39:50;5.28;;;4.72;;
46110;SDS011;31849;55.992;37.252;2023-06-22T11:45:07;7.22;;;5.15;;
46110;SDS011;31849;55.992;37.252;2023-06-22T11:50:11;6.05;;;4.72;;
46110;SDS011;31849;55.992;37.252;2023-06-22T11:55:16;5.20;;;4.50;;
46110;SDS011;31849;55.992;37.252;2023-06-22T12:00:20;7.75;;;4.90;;
46110;SDS011;31849;55.992;37.252;2023-06-22T12:05:30;6.07;;;4.97;;
46110;SDS011;31849;55.992;37.252;2023-06-22T12:10:35;6.13;;;4.78;;
46110;SDS011;31849;55.992;37.252;2023-06-22T12:15:39;5.35;;;4.70;;
46110;SDS011;31849;55.992;37.252;2023-06-22T12:20:43;6.00;;;4.50;;
46110;SDS011;31849;55.992;37.252;2023-06-22T12:25:48;8.00;;;5.13;;
46110;SDS011;31849;55.992;37.252;2023-06-22T12:30:51;7.63;;;4.90;;
46110;SDS011;31849;55.992;37.252;2023-06-22T12:35:55;8.65;;;5.13;;
46110;SDS011;31849;55.992;37.252;2023-06-22T12:41:00;5.15;;;4.47;;
46110;SDS011;31849;55.992;37.252;2023-06-22T12:46:04;6.72;;;4.93;;
46110;SDS011;31849;55.992;37.252;2023-06-22T12:51:07;6.10;;;5.15;;
46110;SDS011;31849;55.992;37.252;2023-06-22T12:56:13;5.93;;;4.72;;
46110;SDS011;31849;55.992;37.252;2023-06-22T13:01:16;6.00;;;4.45;;
46110;SDS011;31849;55.992;37.252;2023-06-22T13:06:20;6.05;;;5.28;;
46110;SDS011;31849;55.992;37.252;2023-06-22T13:11:25;6.75;;;4.75;;
46110;SDS011;31849;55.992;37.252;2023-06-22T13:16:29;6.75;;;5.40;;
46110;SDS011;31849;55.992;37.252;2023-06-22T13:21:32;7.82;;;5.10;;
46110;SDS011;31849;55.992;37.252;2023-06-22T13:26:38;6.63;;;4.88;;
46110;SDS011;31849;55.992;37.252;2023-06-22T13:31:42;5.78;;;4.85;;
46110;SDS011;31849;55.992;37.252;2023-06-22T13:36:45;7.53;;;5.40;;
46110;SDS011;31849;55.992;37.252;2023-06-22T13:41:50;6.60;;;5.25;;
46110;SDS011;31849;55.992;37.252;2023-06-22T13:46:54;8.02;;;5.30;;
46110;SDS011;31849;55.992;37.252;2023-06-22T13:51:57;6.53;;;5.38;;
46110;SDS011;31849;55.992;37.252;2023-06-22T13:57:03;5.70;;;4.88;;
46110;SDS011;31849;55.992;37.252;2023-06-22T14:02:07;5.95;;;4.90;;
46110;SDS011;31849;55.992;37.252;2023-06-22T14:07:10;6.97;;;4.53;;
46110;SDS011;31849;55.992;37.252;2023-06-22T14:12:18;6.07;;;4.97;;
46110;SDS011;31849;55.992;37.252;2023-06-22T14:17:22;8.38;;;5.05;;
46110;SDS011;31849;55.992;37.252;2023-06-22T14:22:27;6.25;;;4.97;;
46110;SDS011;31849;55.992;37.252;2023-06-22T14:27:33;7.15;;;5.22;;
46110;SDS011;31849;55.992;37.252;2023-06-22T14:32:37;5.68;;;4.68;;
46110;SDS011;31849;55.992;37.252;2023-06-22T14:37:40;5.85;;;4.88;;
46110;SDS011;31849;55.992;37.252;2023-06-22T14:42:45;7.93;;;4.75;;
46110;SDS011;31849;55.992;37.252;2023-06-22T14:47:49;7.55;;;4.90;;
46110;SDS011;31849;55.992;37.252;2023-06-22T14:52:52;5.55;;;4.95;;
46110;SDS011;31849;55.992;37.252;2023-06-22T14:57:58;7.30;;;5.32;;
46110;SDS011;31849;55.992;37.252;2023-06-22T15:03:01;6.32;;;4.72;;
46110;SDS011;31849;55.992;37.252;2023-06-22T15:08:07;5.85;;;5.20;;
46110;SDS011;31849;55.992;37.252;2023-06-22T15:13:14;6.07;;;5.03;;
46110;SDS011;31849;55.992;37.252;2023-06-22T15:18:19;7.00;;;4.90;;
46110;SDS011;31849;55.992;37.252;2023-06-22T15:23:23;6.57;;;4.70;;
46110;SDS011;31849;55.992;37.252;2023-06-22T15:28:29;6.95;;;4.80;;
46110;SDS011;31849;55.992;37.252;2023-06-22T15:33:34;7.63;;;5.10;;
46110;SDS011;31849;55.992;37.252;2023-06-22T15:38:39;5.63;;;4.82;;
46110;SDS011;31849;55.992;37.252;2023-06-22T15:43:44;9.63;;;5.20;;
46110;SDS011;31849;55.992;37.252;2023-06-22T15:48:47;7.38;;;5.15;;
46110;SDS011;31849;55.992;37.252;2023-06-22T15:53:53;5.68;;;4.88;;
46110;SDS011;31849;55.992;37.252;2023-06-22T15:59:00;6.18;;;4.63;;
46110;SDS011;31849;55.992;37.252;2023-06-22T16:04:04;11.80;;;4.50;;
46110;SDS011;31849;55.992;37.252;2023-06-22T16:09:08;17.10;;;4.88;;
46110;SDS011;31849;55.992;37.252;2023-06-22T16:14:13;10.60;;;4.10;;
46110;SDS011;31849;55.992;37.252;2023-06-22T16:19:16;16.07;;;4.47;;
46110;SDS011;31849;55.992;37.252;2023-06-22T16:24:20;7.13;;;4.50;;
46110;SDS011;31849;55.992;37.252;2023-06-22T16:29:25;9.75;;;4.10;;
46110;SDS011;31849;55.992;37.252;2023-06-22T16:34:29;10.93;;;4.35;;
46110;SDS011;31849;55.992;37.252;2023-06-22T16:39:32;12.20;;;4.40;;
46110;SDS011;31849;55.992;37.252;2023-06-22T16:44:37;9.43;;;4.60;;
46110;SDS011;31849;55.992;37.252;2023-06-22T16:49:41;7.72;;;4.03;;
46110;SDS011;31849;55.992;37.252;2023-06-22T16:54:45;7.45;;;4.00;;
46110;SDS011;31849;55.992;37.252;2023-06-22T17:00:05;7.18;;;4.43;;
46110;SDS011;31849;55.992;37.252;2023-06-22T17:05:13;11.82;;;4.50;;
46110;SDS011;31849;55.992;37.252;2023-06-22T17:10:19;7.90;;;4.68;;
46110;SDS011;31849;55.992;37.252;2023-06-22T17:15:28;12.00;;;4.68;;
46110;SDS011;31849;55.992;37.252;2023-06-22T17:20:38;12.07;;;5.00;;
46110;SDS011;31849;55.992;37.252;2023-06-22T17:25:42;11.02;;;5.22;;
46110;SDS011;31849;55.992;37.252;2023-06-22T17:30:50;9.82;;;4.75;;
46110;SDS011;31849;55.992;37.252;2023-06-22T17:36:12;9.97;;;4.87;;
46110;SDS011;31849;55.992;37.252;2023-06-22T17:41:16;7.93;;;4.72;;
46110;SDS011;31849;55.992;37.252;2023-06-22T17:46:21;9.73;;;4.32;;
46110;SDS011;31849;55.992;37.252;2023-06-22T17:51:27;10.43;;;5.05;;
46110;SDS011;31849;55.992;37.252;2023-06-22T17:56:33;10.35;;;5.20;;
46110;SDS011;31849;55.992;37.252;2023-06-22T18:01:39;9.55;;;4.65;;
46110;SDS011;31849;55.992;37.252;2023-06-22T18:06:43;10.43;;;4.55;;
46110;SDS011;31849;55.992;37.252;2023-06-22T18:11:48;12.25;;;4.93;;
46110;SDS011;31849;55.992;37.252;2023-06-22T18:16:54;6.78;;;4.20;;
46110;SDS011;31849;55.992;37.252;2023-06-22T18:21:58;7.25;;;3.97;;
46110;SDS011;31849;55.992;37.252;2023-06-22T18:27:02;8.55;;;3.80;;
46110;SDS011;31849;55.992;37.252;2023-06-22T18:32:08;7.53;;;3.70;;
46110;SDS011;31849;55.992;37.252;2023-06-22T18:37:12;12.35;;;4.32;;
46110;SDS011;31849;55.992;37.252;2023-06-22T18:42:18;6.93;;;4.50;;
46110;SDS011;31849;55.992;37.252;2023-06-22T18:47:27;9.77;;;4.20;;
46110;SDS011;31849;55.992;37.252;2023-06-22T18:52:31;8.63;;;4.13;;
46110;SDS011;31849;55.992;37.252;2023-06-22T18:57:36;8.07;;;3.92;;
46110;SDS011;31849;55.992;37.252;2023-06-22T19:02:42;12.60;;;3.97;;
46110;SDS011;31849;55.992;37.252;2023-06-22T19:07:57;10.75;;;4.22;;
46110;SDS011;31849;55.992;37.252;2023-06-22T19:13:17;8.27;;;4.20;;
46110;SDS011;31849;55.992;37.252;2023-06-22T19:23:36;9.65;;;3.97;;
46110;SDS011;31849;55.992;37.252;2023-06-22T19:28:44;9.80;;;3.92;;
46110;SDS011;31849;55.992;37.252;2023-06-22T19:33:52;7.28;;;3.80;;
46110;SDS011;31849;55.992;37.252;2023-06-22T19:38:57;7.10;;;4.18;;
46110;SDS011;31849;55.992;37.252;2023-06-22T19:44:01;9.20;;;3.97;;
46110;SDS011;31849;55.992;37.252;2023-06-22T19:49:07;11.10;;;4.30;;
46110;SDS011;31849;55.992;37.252;2023-06-22T19:54:11;9.48;;;4.22;;
46110;SDS011;31849;55.992;37.252;2023-06-22T19:59:17;8.95;;;4.28;;
46110;SDS011;31849;55.992;37.252;2023-06-22T20:04:28;9.88;;;4.50;;
46110;SDS011;31849;55.992;37.252;2023-06-22T20:09:33;6.03;;;3.97;;
46110;SDS011;31849;55.992;37.252;2023-06-22T20:14:41;9.10;;;4.60;;
46110;SDS011;31849;55.992;37.252;2023-06-22T20:19:52;10.57;;;4.18;;
46110;SDS011;31849;55.992;37.252;2023-06-22T20:24:56;6.43;;;4.07;;
46110;SDS011;31849;55.992;37.252;2023-06-22T20:30:11;9.77;;;4.00;;
46110;SDS011;31849;55.992;37.252;2023-06-22T20:35:17;7.47;;;3.80;;
46110;SDS011;31849;55.992;37.252;2023-06-22T20:40:23;6.90;;;4.03;;
46110;SDS011;31849;55.992;37.252;2023-06-22T20:45:29;6.72;;;4.18;;
46110;SDS011;31849;55.992;37.252;2023-06-22T20:50:38;10.18;;;3.78;;
46110;SDS011;31849;55.992;37.252;2023-06-22T20:55:42;6.32;;;3.80;;
46110;SDS011;31849;55.992;37.252;2023-06-22T21:00:46;13.00;;;4.13;;
46110;SDS011;31849;55.992;37.252;2023-06-22T21:05:51;6.35;;;3.80;;
46110;SDS011;31849;55.992;37.252;2023-06-22T21:10:56;9.38;;;4.05;;
46110;SDS011;31849;55.992;37.252;2023-06-22T21:16:00;5.37;;;3.70;;
46110;SDS011;31849;55.992;37.252;2023-06-22T21:21:05;8.43;;;4.13;;
46110;SDS011;31849;55.992;37.252;2023-06-22T21:26:08;6.40;;;4.13;;
46110;SDS011;31849;55.992;37.252;2023-06-22T21:31:12;9.27;;;4.10;;
46110;SDS011;31849;55.992;37.252;2023-06-22T21:36:17;7.10;;;4.27;;
46110;SDS011;31849;55.992;37.252;2023-06-22T21:41:21;7.28;;;3.95;;
46110;SDS011;31849;55.992;37.252;2023-06-22T21:46:24;9.97;;;4.83;;
46110;SDS011;31849;55.992;37.252;2023-06-22T21:51:30;9.47;;;4.20;;
46110;SDS011;31849;55.992;37.252;2023-06-22T21:56:36;9.15;;;4.05;;
46110;SDS011;31849;55.992;37.252;2023-06-22T22:01:39;9.50;;;4.75;;
46110;SDS011;31849;55.992;37.252;2023-06-22T22:06:44;7.70;;;4.17;;
46110;SDS011;31849;55.992;37.252;2023-06-22T22:11:52;8.23;;;4.03;;
46110;SDS011;31849;55.992;37.252;2023-06-22T22:16:56;10.67;;;4.10;;
46110;SDS011;31849;55.992;37.252;2023-06-22T22:22:02;7.15;;;4.50;;
46110;SDS011;31849;55.992;37.252;2023-06-22T22:27:06;9.13;;;4.28;;
46110;SDS011;31849;55.992;37.252;2023-06-22T22:32:10;15.23;;;4.27;;
46110;SDS011;31849;55.992;37.252;2023-06-22T22:37:15;7.60;;;4.07;;
46110;SDS011;31849;55.992;37.252;2023-06-22T22:42:18;7.70;;;4.57;;
46110;SDS011;31849;55.992;37.252;2023-06-22T22:47:22;10.07;;;4.93;;
46110;SDS011;31849;55.992;37.252;2023-06-22T22:52:27;14.37;;;4.57;;
46110;SDS011;31849;55.992;37.252;2023-06-22T22:57:32;12.75;;;4.55;;
46110;SDS011;31849;55.992;37.252;2023-06-22T23:02:36;7.25;;;4.60;;
46110;SDS011;31849;55.992;37.252;2023-06-22T23:07:42;10.68;;;4.75;;
46110;SDS011;31849;55.992;37.252;2023-06-22T23:12:46;9.10;;;4.40;;
46110;SDS011;31849;55.992;37.252;2023-06-22T23:17:51;12.90;;;4.47;;
46110;SDS011;31849;55.992;37.252;2023-06-22T23:22:56;10.30;;;4.77;;
46110;SDS011;31849;55.992;37.252;2023-06-22T23:28:00;10.73;;;5.05;;
46110;SDS011;31849;55.992;37.252;2023-06-22T23:33:03;10.07;;;4.60;;
46110;SDS011;31849;55.992;37.252;2023-06-22T23:38:09;11.23;;;5.03;;
46110;SDS011;31849;55.992;37.252;2023-06-22T23:43:13;8.13;;;5.22;;
46110;SDS011;31849;55.992;37.252;2023-06-22T23:48:16;9.30;;;5.23;;
46110;SDS011;31849;55.992;37.252;2023-06-22T23:53:21;11.70;;;5.50;;
46110;SDS011;31849;55.992;37.252;2023-06-22T23:58:25;8.13;;;5.57;;
